createdAt,value
2023-02-14T00:01:20.689Z,3.70
2023-02-14T00:03:49.510Z,3.70
2023-02-14T00:06:17.414Z,3.80
2023-02-14T00:08:45.174Z,3.80
2023-02-14T00:11:13.339Z,3.70
2023-02-14T00:14:00.809Z,3.70
2023-02-14T00:16:28.106Z,3.70
2023-02-14T00:19:04.401Z,3.70
2023-02-14T00:21:36.126Z,3.60
2023-02-14T00:24:09.392Z,3.70
2023-02-14T00:26:40.149Z,3.60
2023-02-14T00:29:12.311Z,3.70
2023-02-14T00:31:40.594Z,3.60
2023-02-14T00:34:08.715Z,3.70
2023-02-14T00:36:36.466Z,3.70
2023-02-14T00:39:09.019Z,3.70
2023-02-14T00:41:38.649Z,3.80
2023-02-14T00:44:06.468Z,3.70
2023-02-14T00:46:34.489Z,3.70
2023-02-14T00:49:01.977Z,3.60
2023-02-14T00:51:29.321Z,3.50
2023-02-14T00:53:56.729Z,3.60
2023-02-14T00:56:24.037Z,3.60
2023-02-14T00:58:51.277Z,3.60
2023-02-14T01:01:19.336Z,3.60
2023-02-14T01:03:46.820Z,3.60
2023-02-14T01:06:14.918Z,3.60
2023-02-14T01:08:42.237Z,3.60
2023-02-14T01:11:16.232Z,3.60
2023-02-14T01:13:44.353Z,3.50
2023-02-14T01:16:14.798Z,3.40
2023-02-14T01:18:43.056Z,3.50
2023-02-14T01:21:25.132Z,3.40
2023-02-14T01:23:56.193Z,3.50
2023-02-14T01:26:24.552Z,3.50
2023-02-14T01:28:51.982Z,3.50
2023-02-14T01:31:22.497Z,3.50
2023-02-14T01:33:50.723Z,3.50
2023-02-14T01:36:28.340Z,3.60
2023-02-14T01:38:59.256Z,3.60
2023-02-14T01:41:28.632Z,3.50
2023-02-14T01:43:56.101Z,3.60
2023-02-14T01:46:26.187Z,3.50
2023-02-14T01:48:59.447Z,3.50
2023-02-14T01:51:26.750Z,3.50
2023-02-14T01:53:54.775Z,3.50
2023-02-14T01:56:31.486Z,3.50
2023-02-14T01:59:01.502Z,3.50
2023-02-14T02:01:30.437Z,3.50
2023-02-14T02:04:02.545Z,3.50
2023-02-14T02:06:41.893Z,3.40
2023-02-14T02:09:13.466Z,3.40
2023-02-14T02:11:41.865Z,3.40
2023-02-14T02:14:18.013Z,3.40
2023-02-14T02:16:57.433Z,3.40
2023-02-14T02:19:55.156Z,3.50
2023-02-14T02:22:41.957Z,3.40
2023-02-14T02:25:15.060Z,3.40
2023-02-14T02:27:59.016Z,3.40
2023-02-14T02:30:52.037Z,3.40
2023-02-14T02:33:48.617Z,3.40
2023-02-14T02:36:21.619Z,3.30
2023-02-14T02:39:04.258Z,3.20
2023-02-14T02:42:01.072Z,3.10
2023-02-14T02:44:43.211Z,3.10
2023-02-14T02:47:10.333Z,3.10
2023-02-14T02:50:15.119Z,3.10
2023-02-14T02:53:04.197Z,3.20
2023-02-14T02:55:59.696Z,3.20
2023-02-14T02:58:36.898Z,3.20
2023-02-14T03:01:11.712Z,3.20
2023-02-14T03:03:59.862Z,3.20
2023-02-14T03:06:27.277Z,3.20
2023-02-14T03:08:54.461Z,3.20
2023-02-14T03:11:22.210Z,3.20
2023-02-14T03:14:08.724Z,3.20
2023-02-14T03:17:17.611Z,3.10
2023-02-14T03:20:16.045Z,3.10
2023-02-14T03:23:16.381Z,3.10
2023-02-14T03:25:48.728Z,3.10
2023-02-14T03:28:34.998Z,3.10
2023-02-14T03:31:08.215Z,3.00
2023-02-14T03:33:47.930Z,3.00
2023-02-14T03:36:46.971Z,3.00
2023-02-14T03:39:21.962Z,3.00
2023-02-14T03:42:13.220Z,3.00
2023-02-14T03:44:43.077Z,3.00
2023-02-14T03:47:13.397Z,3.00
2023-02-14T03:50:07.536Z,3.00
2023-02-14T03:52:36.833Z,3.00
2023-02-14T03:55:07.008Z,3.00
2023-02-14T03:58:00.524Z,3.00
2023-02-14T04:00:30.419Z,3.00
2023-02-14T04:03:03.327Z,2.90
2023-02-14T04:05:31.082Z,2.90
2023-02-14T04:07:59.647Z,3.00
2023-02-14T04:10:27.541Z,2.90
2023-02-14T04:12:54.814Z,3.00
2023-02-14T04:15:22.116Z,2.90
2023-02-14T04:18:07.847Z,3.00
2023-02-14T04:20:35.215Z,3.00
2023-02-14T04:23:03.611Z,3.00
2023-02-14T04:25:31.281Z,2.90
2023-02-14T04:27:58.462Z,2.90
2023-02-14T04:30:25.783Z,2.90
2023-02-14T04:32:53.011Z,2.80
2023-02-14T04:35:20.229Z,2.70
2023-02-14T04:37:47.492Z,2.60
2023-02-14T04:40:17.691Z,2.60
2023-02-14T04:42:46.583Z,2.60
2023-02-14T04:45:14.828Z,2.60
2023-02-14T04:47:42.072Z,2.60
2023-02-14T04:50:09.672Z,2.60
2023-02-14T04:52:36.985Z,2.70
2023-02-14T04:55:05.059Z,2.70
2023-02-14T04:57:32.496Z,2.70
2023-02-14T04:59:59.723Z,2.70
2023-02-14T05:02:27.090Z,2.70
2023-02-14T05:04:54.339Z,2.70
2023-02-14T05:07:21.529Z,2.70
2023-02-14T05:09:48.752Z,2.70
2023-02-14T05:12:16.967Z,2.80
2023-02-14T05:14:44.229Z,2.80
2023-02-14T05:17:11.589Z,2.80
2023-02-14T05:19:38.816Z,2.80
2023-02-14T05:22:06.017Z,2.80
2023-02-14T05:24:33.367Z,2.90
2023-02-14T05:27:00.538Z,2.80
2023-02-14T05:29:27.890Z,2.80
2023-02-14T05:31:55.182Z,2.80
2023-02-14T05:34:22.497Z,2.80
2023-02-14T05:36:49.805Z,2.80
2023-02-14T05:39:16.968Z,2.70
2023-02-14T05:41:44.202Z,2.70
2023-02-14T05:44:11.449Z,2.70
2023-02-14T05:46:38.655Z,2.70
2023-02-14T05:49:05.920Z,2.70
2023-02-14T05:51:33.193Z,2.70
2023-02-14T05:54:01.296Z,2.60
2023-02-14T05:56:28.534Z,2.60
2023-02-14T05:58:55.700Z,2.60
2023-02-14T06:01:22.978Z,2.60
2023-02-14T06:03:50.250Z,2.70
2023-02-14T06:06:17.468Z,2.70
2023-02-14T06:08:44.744Z,2.70
2023-02-14T06:11:11.983Z,2.70
2023-02-14T06:13:41.629Z,2.80
2023-02-14T06:16:09.050Z,2.80
2023-02-14T06:18:36.510Z,2.70
2023-02-14T06:21:04.115Z,2.80
2023-02-14T06:23:31.331Z,2.80
2023-02-14T06:25:58.566Z,2.80
2023-02-14T06:28:25.813Z,2.80
2023-02-14T06:30:53.203Z,2.80
2023-02-14T06:33:20.647Z,2.80
2023-02-14T06:35:47.890Z,2.80
2023-02-14T06:38:15.194Z,2.70
2023-02-14T06:40:42.494Z,2.70
2023-02-14T06:43:09.678Z,2.80
2023-02-14T06:45:37.017Z,2.80
2023-02-14T06:48:04.428Z,2.80
2023-02-14T06:50:31.718Z,2.80
2023-02-14T06:52:58.908Z,2.80
2023-02-14T06:55:26.464Z,2.80
2023-02-14T06:57:53.726Z,2.70
2023-02-14T07:00:21.468Z,2.80
2023-02-14T07:02:48.687Z,2.80
2023-02-14T07:05:19.079Z,2.70
2023-02-14T07:07:46.817Z,2.70
2023-02-14T07:10:14.817Z,2.70
2023-02-14T07:12:42.297Z,2.70
2023-02-14T07:15:12.636Z,2.70
2023-02-14T07:17:40.390Z,2.70
2023-02-14T07:20:09.674Z,2.70
2023-02-14T07:22:38.068Z,2.70
2023-02-14T07:25:07.214Z,2.60
2023-02-14T07:27:37.191Z,2.60
2023-02-14T07:30:06.237Z,2.60
2023-02-14T07:32:34.366Z,2.70
2023-02-14T07:35:01.547Z,2.60
2023-02-14T07:37:28.797Z,2.50
2023-02-14T07:39:56.029Z,2.50
2023-02-14T07:42:23.259Z,2.60
2023-02-14T07:44:50.517Z,2.60
2023-02-14T07:47:17.868Z,2.50
2023-02-14T07:49:45.323Z,2.50
2023-02-14T07:52:12.736Z,2.60
2023-02-14T07:54:39.958Z,2.60
2023-02-14T07:57:07.167Z,2.70
2023-02-14T07:59:34.862Z,2.80
2023-02-14T08:02:02.176Z,2.90
2023-02-14T08:04:30.265Z,2.90
2023-02-14T08:06:58.515Z,3.00
2023-02-14T08:09:25.791Z,3.00
2023-02-14T08:12:13.762Z,2.80
2023-02-14T08:14:42.144Z,2.90
2023-02-14T08:17:14.003Z,2.90
2023-02-14T08:19:41.234Z,2.80
2023-02-14T08:22:08.552Z,2.80
2023-02-14T08:24:35.794Z,2.90
2023-02-14T08:27:03.222Z,3.00
2023-02-14T08:29:30.557Z,3.10
2023-02-14T08:32:00.557Z,3.20
2023-02-14T08:34:27.824Z,3.30
2023-02-14T08:36:55.477Z,3.40
2023-02-14T08:39:22.695Z,3.20
2023-02-14T08:41:49.992Z,3.30
2023-02-14T08:44:17.283Z,3.40
2023-02-14T08:46:44.753Z,3.50
2023-02-14T08:49:12.050Z,3.50
2023-02-14T08:51:39.267Z,3.60
2023-02-14T08:54:06.662Z,3.70
2023-02-14T08:56:33.923Z,3.70
2023-02-14T08:59:01.211Z,3.40
2023-02-14T09:01:29.272Z,3.40
2023-02-14T09:03:58.120Z,3.40
2023-02-14T09:06:25.585Z,3.40
2023-02-14T09:08:55.286Z,3.40
2023-02-14T09:11:25.160Z,3.30
2023-02-14T09:13:53.636Z,3.30
2023-02-14T09:16:22.227Z,3.60
2023-02-14T09:18:50.096Z,3.60
2023-02-14T09:21:21.512Z,3.50
2023-02-14T09:23:48.793Z,3.60
2023-02-14T09:26:16.833Z,3.60
2023-02-14T09:28:44.648Z,3.50
2023-02-14T09:31:17.782Z,3.70
2023-02-14T09:34:05.725Z,3.80
2023-02-14T09:36:33.061Z,3.90
2023-02-14T09:39:00.335Z,4.00
2023-02-14T09:41:30.426Z,4.10
2023-02-14T09:44:08.820Z,4.20
2023-02-14T09:46:48.617Z,4.20
2023-02-14T09:49:19.594Z,4.30
2023-02-14T09:51:51.693Z,4.40
2023-02-14T09:54:24.507Z,4.40
2023-02-14T09:57:10.245Z,4.50
2023-02-14T09:59:40.639Z,4.60
2023-02-14T10:02:44.952Z,4.60
2023-02-14T10:05:17.390Z,4.70
2023-02-14T10:08:03.546Z,4.70
2023-02-14T10:10:39.732Z,4.80
2023-02-14T10:13:42.932Z,4.90
2023-02-14T10:16:32.601Z,5.00
2023-02-14T10:19:21.893Z,5.00
2023-02-14T10:22:20.888Z,5.10
2023-02-14T10:25:08.214Z,5.30
2023-02-14T10:27:46.147Z,5.20
2023-02-14T10:30:20.600Z,5.30
2023-02-14T10:32:49.520Z,5.40
2023-02-14T10:35:25.504Z,5.40
2023-02-14T10:38:05.575Z,5.50
2023-02-14T10:40:47.321Z,5.30
2023-02-14T10:43:39.001Z,5.50
2023-02-14T10:46:22.308Z,5.50
2023-02-14T10:48:58.634Z,5.40
2023-02-14T10:51:47.043Z,5.50
2023-02-14T10:54:32.068Z,5.50
2023-02-14T10:57:04.228Z,5.50
2023-02-14T10:59:44.413Z,5.50
2023-02-14T11:02:16.070Z,5.50
2023-02-14T11:04:46.757Z,5.40
2023-02-14T11:07:16.049Z,5.40
2023-02-14T11:09:43.423Z,5.40
2023-02-14T11:12:11.169Z,5.60
2023-02-14T11:14:40.177Z,5.70
2023-02-14T11:17:27.906Z,5.90
2023-02-14T11:20:07.350Z,5.90
2023-02-14T11:22:35.554Z,5.90
2023-02-14T11:25:14.035Z,5.80
2023-02-14T11:27:49.922Z,5.80
2023-02-14T11:30:31.746Z,5.80
2023-02-14T11:32:59.116Z,5.80
2023-02-14T11:35:34.009Z,5.80
2023-02-14T11:38:03.975Z,6.00
2023-02-14T11:40:38.819Z,6.10
2023-02-14T11:43:14.616Z,6.00
2023-02-14T11:45:44.625Z,6.20
2023-02-14T11:48:37.226Z,6.20
2023-02-14T11:51:10.074Z,6.10
2023-02-14T11:53:40.199Z,6.10
2023-02-14T11:56:07.568Z,6.10
2023-02-14T11:58:39.322Z,5.80
2023-02-14T12:01:07.849Z,5.80
2023-02-14T12:03:45.203Z,6.00
2023-02-14T12:06:13.764Z,6.10
2023-02-14T12:08:42.093Z,6.10
2023-02-14T12:11:23.838Z,6.20
2023-02-14T12:13:55.947Z,6.30
2023-02-14T12:16:39.120Z,6.40
2023-02-14T12:19:16.269Z,6.40
2023-02-14T12:22:01.353Z,6.40
2023-02-14T12:24:28.503Z,6.80
2023-02-14T12:27:10.640Z,6.80
2023-02-14T12:29:41.129Z,7.00
2023-02-14T12:32:21.053Z,7.10
2023-02-14T12:34:49.764Z,7.30
2023-02-14T12:37:28.792Z,7.20
2023-02-14T12:40:16.686Z,7.20
2023-02-14T12:43:37.319Z,7.20
2023-02-14T12:46:12.773Z,7.20
2023-02-14T12:49:17.055Z,7.20
2023-02-14T12:52:11.794Z,7.30
2023-02-14T12:54:44.887Z,7.10
2023-02-14T12:57:42.285Z,7.40
2023-02-14T13:00:35.332Z,7.50
2023-02-14T13:03:40.457Z,7.10
2023-02-14T13:06:29.415Z,7.00
2023-02-14T13:09:08.305Z,7.20
2023-02-14T13:12:12.229Z,7.30
2023-02-14T13:14:48.022Z,7.40
2023-02-14T13:17:40.571Z,7.10
2023-02-14T13:20:26.441Z,7.40
2023-02-14T13:22:57.855Z,7.50
2023-02-14T13:25:31.813Z,7.70
2023-02-14T13:28:02.640Z,8.00
2023-02-14T13:30:32.274Z,8.30
2023-02-14T13:33:06.229Z,8.50
2023-02-14T13:35:34.497Z,8.40
2023-02-14T13:38:08.800Z,8.50
2023-02-14T13:40:36.632Z,8.40
2023-02-14T13:43:04.476Z,8.30
2023-02-14T13:45:40.430Z,8.60
2023-02-14T13:48:13.518Z,8.30
2023-02-14T13:50:53.125Z,8.30
2023-02-14T13:53:34.860Z,8.50
2023-02-14T13:56:15.418Z,8.70
2023-02-14T13:58:53.516Z,8.80
2023-02-14T14:01:48.415Z,8.60
2023-02-14T14:04:28.186Z,8.60
2023-02-14T14:07:04.458Z,8.70
2023-02-14T14:09:47.680Z,8.90
2023-02-14T14:12:27.138Z,9.00
2023-02-14T14:15:16.402Z,9.20
2023-02-14T14:18:06.046Z,9.10
2023-02-14T14:20:42.328Z,9.10
2023-02-14T14:23:37.158Z,10.30
2023-02-14T14:26:34.132Z,13.00
2023-02-14T14:29:01.814Z,15.90
2023-02-14T14:31:29.910Z,17.50
2023-02-14T14:34:01.306Z,19.50
2023-02-14T14:36:29.051Z,18.80
2023-02-14T14:38:56.552Z,18.70
2023-02-14T14:41:29.593Z,18.40
2023-02-14T14:43:58.313Z,18.20
2023-02-14T14:46:25.618Z,18.00
2023-02-14T14:48:55.421Z,18.50
2023-02-14T14:51:29.037Z,19.00
2023-02-14T14:54:13.688Z,19.90
2023-02-14T14:57:01.738Z,20.50
2023-02-14T14:59:35.299Z,21.60
2023-02-14T15:02:05.617Z,21.50
2023-02-14T15:04:35.500Z,21.50
2023-02-14T15:07:21.076Z,21.50
2023-02-14T15:09:48.418Z,22.50
2023-02-14T15:12:41.079Z,22.10
2023-02-14T15:15:12.096Z,22.80
2023-02-14T15:17:42.159Z,22.70
2023-02-14T15:20:22.148Z,23.20
2023-02-14T15:22:52.646Z,23.20
2023-02-14T15:25:26.637Z,23.90
2023-02-14T15:27:54.256Z,23.30
2023-02-14T15:30:38.055Z,21.60
2023-02-14T15:33:07.277Z,21.90
2023-02-14T15:35:39.095Z,22.20
2023-02-14T15:38:10.688Z,21.30
2023-02-14T15:40:38.954Z,21.00
2023-02-14T15:43:22.334Z,21.10
2023-02-14T15:45:53.054Z,21.70
2023-02-14T15:48:29.544Z,21.40
2023-02-14T15:50:59.817Z,20.80
2023-02-14T15:53:53.782Z,21.10
2023-02-14T15:56:29.636Z,20.10
2023-02-14T15:59:01.679Z,19.60
2023-02-14T16:01:30.707Z,19.30
2023-02-14T16:04:01.852Z,18.70
2023-02-14T16:06:38.514Z,17.20
2023-02-14T16:09:22.716Z,16.60
2023-02-14T16:11:50.018Z,15.70
2023-02-14T16:14:37.200Z,14.30
2023-02-14T16:17:11.915Z,13.70
2023-02-14T16:19:48.195Z,13.20
2023-02-14T16:22:32.275Z,12.60
2023-02-14T16:24:59.798Z,11.60
2023-02-14T16:27:27.268Z,10.60
2023-02-14T16:29:54.568Z,9.70
2023-02-14T16:32:24.681Z,8.90
2023-02-14T16:34:52.232Z,8.10
2023-02-14T16:37:25.404Z,7.60
2023-02-14T16:39:57.785Z,7.10
2023-02-14T16:42:25.360Z,6.60
2023-02-14T16:44:53.293Z,6.30
2023-02-14T16:47:21.480Z,5.90
2023-02-14T16:49:50.701Z,5.50
2023-02-14T16:52:23.855Z,5.20
2023-02-14T16:54:52.093Z,4.90
2023-02-14T16:57:23.392Z,4.70
2023-02-14T16:59:51.152Z,4.50
2023-02-14T17:02:19.218Z,4.30
2023-02-14T17:04:46.538Z,4.10
2023-02-14T17:07:15.671Z,3.90
2023-02-14T17:09:49.029Z,3.80
2023-02-14T17:12:21.287Z,3.70
2023-02-14T17:14:50.956Z,3.60
2023-02-14T17:17:20.039Z,3.50
2023-02-14T17:19:47.407Z,3.40
2023-02-14T17:22:15.179Z,3.30
2023-02-14T17:24:42.530Z,3.20
2023-02-14T17:27:10.162Z,3.20
2023-02-14T17:29:37.446Z,3.10
2023-02-14T17:32:04.969Z,3.10
2023-02-14T17:34:33.676Z,3.00
2023-02-14T17:37:01.452Z,3.00
2023-02-14T17:39:28.787Z,2.90
2023-02-14T17:41:57.007Z,2.80
2023-02-14T17:44:24.583Z,2.70
2023-02-14T17:46:54.747Z,2.70
2023-02-14T17:49:22.085Z,2.70
2023-02-14T17:51:49.500Z,2.60
2023-02-14T17:54:17.128Z,2.60
2023-02-14T17:56:44.689Z,2.50
2023-02-14T17:59:12.173Z,2.50
2023-02-14T18:01:39.597Z,2.50
2023-02-14T18:04:07.202Z,2.50
2023-02-14T18:06:34.570Z,2.50
2023-02-14T18:09:06.303Z,2.50
2023-02-14T18:11:33.716Z,2.60
2023-02-14T18:14:01.958Z,2.50
2023-02-14T18:16:29.564Z,2.50
2023-02-14T18:18:56.941Z,2.60
2023-02-14T18:21:24.743Z,2.60
2023-02-14T18:23:52.208Z,2.50
2023-02-14T18:26:19.834Z,2.50
2023-02-14T18:28:47.170Z,2.50
2023-02-14T18:31:17.199Z,2.40
2023-02-14T18:33:47.038Z,2.40
2023-02-14T18:36:20.372Z,2.40
2023-02-14T18:38:49.006Z,2.40
2023-02-14T18:41:18.748Z,2.50
2023-02-14T18:43:46.486Z,2.50
2023-02-14T18:46:16.515Z,2.50
2023-02-14T18:48:44.392Z,2.60
2023-02-14T18:51:20.105Z,2.60
2023-02-14T18:53:48.304Z,2.60
2023-02-14T18:56:18.605Z,2.60
2023-02-14T18:58:48.824Z,2.70
2023-02-14T19:01:19.651Z,2.70
2023-02-14T19:03:47.118Z,2.70
2023-02-14T19:06:14.391Z,2.80
2023-02-14T19:08:41.897Z,2.80
2023-02-14T19:11:14.571Z,2.90
2023-02-14T19:13:49.968Z,2.90
2023-02-14T19:16:20.378Z,2.90
2023-02-14T19:18:49.753Z,3.00
2023-02-14T19:21:22.651Z,3.10
2023-02-14T19:23:50.675Z,3.10
2023-02-14T19:26:24.739Z,3.20
2023-02-14T19:28:57.040Z,3.20
2023-02-14T19:31:25.012Z,3.20
2023-02-14T19:33:52.704Z,3.30
2023-02-14T19:36:21.488Z,3.20
2023-02-14T19:38:51.346Z,3.20
2023-02-14T19:41:27.938Z,3.30
2023-02-14T19:43:59.077Z,3.30
2023-02-14T19:46:27.869Z,3.30
2023-02-14T19:48:59.049Z,3.30
2023-02-14T19:51:36.384Z,3.30
2023-02-14T19:54:05.898Z,3.30
2023-02-14T19:56:38.638Z,3.40
2023-02-14T19:59:14.482Z,3.40
2023-02-14T20:01:47.442Z,3.40
2023-02-14T20:04:20.726Z,3.40
2023-02-14T20:06:48.856Z,3.50
2023-02-14T20:09:18.004Z,3.50
2023-02-14T20:11:52.232Z,3.40
2023-02-14T20:14:21.667Z,3.40
2023-02-14T20:16:49.472Z,3.40
2023-02-14T20:19:19.827Z,3.40
2023-02-14T20:21:50.064Z,3.40
2023-02-14T20:24:20.418Z,3.40
2023-02-14T20:26:49.121Z,3.40
2023-02-14T20:29:17.696Z,3.40
2023-02-14T20:31:47.839Z,3.40
2023-02-14T20:34:15.772Z,3.40
2023-02-14T20:36:49.711Z,3.50
2023-02-14T20:39:17.026Z,3.40
2023-02-14T20:41:48.430Z,3.30
2023-02-14T20:44:19.874Z,3.20
2023-02-14T20:46:48.847Z,3.20
2023-02-14T20:49:16.647Z,3.20
2023-02-14T20:51:46.620Z,3.20
2023-02-14T20:54:13.903Z,3.20
2023-02-14T20:56:41.887Z,3.10
2023-02-14T20:59:11.491Z,3.10
2023-02-14T21:01:39.558Z,3.10
2023-02-14T21:04:07.171Z,3.10
2023-02-14T21:06:35.600Z,3.00
2023-02-14T21:09:03.987Z,3.00
2023-02-14T21:11:31.255Z,3.00
2023-02-14T21:14:00.226Z,3.00
2023-02-14T21:16:29.223Z,3.00
2023-02-14T21:19:01.578Z,2.90
2023-02-14T21:21:36.273Z,2.90
2023-02-14T21:24:10.036Z,2.80
2023-02-14T21:26:38.190Z,2.90
2023-02-14T21:29:06.542Z,2.80
2023-02-14T21:31:34.258Z,2.80
2023-02-14T21:34:03.262Z,2.80
2023-02-14T21:36:32.596Z,2.80
2023-02-14T21:39:00.664Z,2.70
2023-02-14T21:41:30.389Z,2.70
2023-02-14T21:43:59.376Z,2.70
2023-02-14T21:46:31.209Z,2.60
2023-02-14T21:49:17.620Z,2.60
2023-02-14T21:51:45.739Z,2.60
2023-02-14T21:54:13.571Z,2.60
2023-02-14T21:56:43.923Z,2.60
2023-02-14T21:59:11.633Z,2.60
2023-02-14T22:01:41.323Z,2.60
2023-02-14T22:04:10.854Z,2.60
2023-02-14T22:06:39.977Z,2.60
2023-02-14T22:09:07.740Z,2.60
2023-02-14T22:11:35.360Z,2.70
2023-02-14T22:14:02.880Z,2.70
2023-02-14T22:16:30.338Z,2.70
2023-02-14T22:18:57.570Z,2.60
2023-02-14T22:21:26.737Z,2.60
2023-02-14T22:23:55.321Z,2.50
2023-02-14T22:26:30.685Z,2.50
2023-02-14T22:29:00.756Z,2.50
2023-02-14T22:31:30.257Z,2.50
2023-02-14T22:33:57.716Z,2.40
2023-02-14T22:36:24.980Z,2.40
2023-02-14T22:38:52.293Z,2.40
2023-02-14T22:41:22.981Z,2.40
2023-02-14T22:43:51.253Z,2.40
2023-02-14T22:46:28.852Z,2.30
2023-02-14T22:48:57.562Z,2.20
2023-02-14T22:51:29.499Z,2.20
2023-02-14T22:53:58.042Z,2.10
2023-02-14T22:56:30.180Z,2.10
2023-02-14T22:59:00.432Z,2.10
2023-02-14T23:01:28.230Z,2.10
2023-02-14T23:03:57.271Z,2.10
2023-02-14T23:06:26.321Z,2.10
2023-02-14T23:08:54.395Z,2.10
2023-02-14T23:11:24.801Z,2.10
2023-02-14T23:14:10.940Z,2.00
2023-02-14T23:16:57.077Z,2.00
2023-02-14T23:19:53.656Z,2.00
2023-02-14T23:22:26.680Z,2.00
2023-02-14T23:24:57.390Z,2.00
2023-02-14T23:27:31.041Z,2.00
2023-02-14T23:29:58.575Z,2.00
2023-02-14T23:32:26.315Z,2.00
2023-02-14T23:34:53.549Z,2.10
2023-02-14T23:37:20.767Z,2.00
2023-02-14T23:39:47.954Z,2.10
2023-02-14T23:42:16.312Z,2.10
2023-02-14T23:44:44.744Z,2.10
2023-02-14T23:47:13.274Z,2.00
2023-02-14T23:49:41.243Z,2.00
2023-02-14T23:52:11.223Z,1.90
2023-02-14T23:54:39.468Z,2.00
2023-02-14T23:57:08.082Z,2.00
2023-02-14T23:59:35.363Z,1.90
